sensor_id;sensor_type;location;lat;lon;timestamp;temperature;humidity
51029;DHT22;37054;52.054;8.600;2022-07-03T00:00:43;22.20;40.80
51029;DHT22;37054;52.054;8.600;2022-07-03T00:03:09;22.20;41.10
51029;DHT22;37054;52.054;8.600;2022-07-03T00:05:34;22.10;41.20
51029;DHT22;37054;52.054;8.600;2022-07-03T00:08:00;22.00;41.30
51029;DHT22;37054;52.054;8.600;2022-07-03T00:10:25;22.00;41.30
51029;DHT22;37054;52.054;8.600;2022-07-03T00:12:51;22.00;41.40
51029;DHT22;37054;52.054;8.600;2022-07-03T00:15:16;21.90;41.70
51029;DHT22;37054;52.054;8.600;2022-07-03T00:17:43;21.90;41.90
51029;DHT22;37054;52.054;8.600;2022-07-03T00:20:08;21.90;42.20
51029;DHT22;37054;52.054;8.600;2022-07-03T00:22:35;21.80;42.30
51029;DHT22;37054;52.054;8.600;2022-07-03T00:25:03;21.80;42.50
51029;DHT22;37054;52.054;8.600;2022-07-03T00:27:33;21.80;42.60
51029;DHT22;37054;52.054;8.600;2022-07-03T00:30:03;21.80;42.80
51029;DHT22;37054;52.054;8.600;2022-07-03T00:32:37;21.80;43.00
51029;DHT22;37054;52.054;8.600;2022-07-03T00:35:03;21.90;42.90
51029;DHT22;37054;52.054;8.600;2022-07-03T00:55:40;22.40;43.30
51029;DHT22;37054;52.054;8.600;2022-07-03T00:58:07;22.40;43.40
51029;DHT22;37054;52.054;8.600;2022-07-03T01:26:12;21.50;44.00
51029;DHT22;37054;52.054;8.600;2022-07-03T01:28:38;21.40;44.00
51029;DHT22;37054;52.054;8.600;2022-07-03T01:31:05;21.30;44.00
51029;DHT22;37054;52.054;8.600;2022-07-03T01:33:32;21.30;44.00
51029;DHT22;37054;52.054;8.600;2022-07-03T01:38:23;21.20;44.10
51029;DHT22;37054;52.054;8.600;2022-07-03T01:40:51;21.10;44.30
51029;DHT22;37054;52.054;8.600;2022-07-03T01:43:19;21.00;44.50
51029;DHT22;37054;52.054;8.600;2022-07-03T01:45:47;21.00;44.60
51029;DHT22;37054;52.054;8.600;2022-07-03T01:48:16;21.00;44.70
51029;DHT22;37054;52.054;8.600;2022-07-03T03:25:31;20.10;47.60
51029;DHT22;37054;52.054;8.600;2022-07-03T03:28:00;20.10;47.60
51029;DHT22;37054;52.054;8.600;2022-07-03T03:30:26;20.10;47.70
51029;DHT22;37054;52.054;8.600;2022-07-03T03:32:54;20.20;47.90
51029;DHT22;37054;52.054;8.600;2022-07-03T03:35:20;20.30;48.10
51029;DHT22;37054;52.054;8.600;2022-07-03T03:37:45;20.50;48.40
51029;DHT22;37054;52.054;8.600;2022-07-03T03:40:14;20.70;48.60
51029;DHT22;37054;52.054;8.600;2022-07-03T03:52:53;21.80;48.70
51029;DHT22;37054;52.054;8.600;2022-07-03T03:55:19;22.10;48.70
51029;DHT22;37054;52.054;8.600;2022-07-03T03:57:45;22.40;48.50
51029;DHT22;37054;52.054;8.600;2022-07-03T04:00:12;22.70;48.40
51029;DHT22;37054;52.054;8.600;2022-07-03T04:02:38;23.00;48.10
51029;DHT22;37054;52.054;8.600;2022-07-03T04:05:04;23.20;47.80
51029;DHT22;37054;52.054;8.600;2022-07-03T04:12:34;24.00;47.00
51029;DHT22;37054;52.054;8.600;2022-07-03T04:14:59;24.30;46.90
51029;DHT22;37054;52.054;8.600;2022-07-03T04:17:25;24.60;46.60
51029;DHT22;37054;52.054;8.600;2022-07-03T04:19:55;24.90;46.00
51029;DHT22;37054;52.054;8.600;2022-07-03T04:22:25;25.20;45.70
51029;DHT22;37054;52.054;8.600;2022-07-03T04:24:50;25.50;45.20
51029;DHT22;37054;52.054;8.600;2022-07-03T04:27:16;25.90;44.90
51029;DHT22;37054;52.054;8.600;2022-07-03T04:29:41;26.30;44.50
51029;DHT22;37054;52.054;8.600;2022-07-03T05:00:39;31.20;37.90
51029;DHT22;37054;52.054;8.600;2022-07-03T05:03:07;31.70;37.00
51029;DHT22;37054;52.054;8.600;2022-07-03T05:05:35;32.00;36.00
51029;DHT22;37054;52.054;8.600;2022-07-03T05:08:01;32.30;35.30
51029;DHT22;37054;52.054;8.600;2022-07-03T05:10:27;32.70;35.00
51029;DHT22;37054;52.054;8.600;2022-07-03T05:12:53;33.10;34.60
51029;DHT22;37054;52.054;8.600;2022-07-03T05:15:19;33.40;34.10
51029;DHT22;37054;52.054;8.600;2022-07-03T05:17:45;33.90;33.50
51029;DHT22;37054;52.054;8.600;2022-07-03T05:20:11;34.30;32.30
51029;DHT22;37054;52.054;8.600;2022-07-03T05:22:59;34.50;31.80
51029;DHT22;37054;52.054;8.600;2022-07-03T05:25:25;34.80;31.40
51029;DHT22;37054;52.054;8.600;2022-07-03T05:27:51;35.20;30.50
51029;DHT22;37054;52.054;8.600;2022-07-03T05:30:18;35.40;29.90
51029;DHT22;37054;52.054;8.600;2022-07-03T05:32:44;35.80;29.50
51029;DHT22;37054;52.054;8.600;2022-07-03T05:35:10;36.10;28.80
51029;DHT22;37054;52.054;8.600;2022-07-03T05:37:36;36.30;28.50
51029;DHT22;37054;52.054;8.600;2022-07-03T06:04:13;40.10;23.60
51029;DHT22;37054;52.054;8.600;2022-07-03T06:06:42;40.40;23.60
51029;DHT22;37054;52.054;8.600;2022-07-03T06:09:12;40.60;23.10
51029;DHT22;37054;52.054;8.600;2022-07-03T06:11:40;40.70;23.10
51029;DHT22;37054;52.054;8.600;2022-07-03T06:14:06;40.80;22.70
51029;DHT22;37054;52.054;8.600;2022-07-03T06:16:31;41.10;22.50
51029;DHT22;37054;52.054;8.600;2022-07-03T06:37:15;43.30;20.70
51029;DHT22;37054;52.054;8.600;2022-07-03T06:39:41;43.60;20.60
51029;DHT22;37054;52.054;8.600;2022-07-03T06:42:06;43.90;20.40
51029;DHT22;37054;52.054;8.600;2022-07-03T06:44:32;44.20;20.10
51029;DHT22;37054;52.054;8.600;2022-07-03T06:46:57;44.50;19.80
51029;DHT22;37054;52.054;8.600;2022-07-03T06:49:23;44.70;19.40
51029;DHT22;37054;52.054;8.600;2022-07-03T06:51:52;44.90;19.20
51029;DHT22;37054;52.054;8.600;2022-07-03T06:54:17;45.10;18.90
51029;DHT22;37054;52.054;8.600;2022-07-03T06:56:43;45.30;18.70
51029;DHT22;37054;52.054;8.600;2022-07-03T06:59:08;45.40;18.70
51029;DHT22;37054;52.054;8.600;2022-07-03T07:01:34;45.60;18.60
51029;DHT22;37054;52.054;8.600;2022-07-03T07:03:59;45.80;18.20
51029;DHT22;37054;52.054;8.600;2022-07-03T07:06:25;46.10;18.20
51029;DHT22;37054;52.054;8.600;2022-07-03T07:08:55;46.30;18.00
51029;DHT22;37054;52.054;8.600;2022-07-03T07:39:54;48.00;15.80
51029;DHT22;37054;52.054;8.600;2022-07-03T07:42:19;48.10;14.80
51029;DHT22;37054;52.054;8.600;2022-07-03T07:44:46;48.20;14.80
51029;DHT22;37054;52.054;8.600;2022-07-03T07:47:12;48.30;14.90
51029;DHT22;37054;52.054;8.600;2022-07-03T07:49:46;48.50;15.00
51029;DHT22;37054;52.054;8.600;2022-07-03T07:52:11;48.60;14.60
51029;DHT22;37054;52.054;8.600;2022-07-03T07:54:40;48.70;14.70
51029;DHT22;37054;52.054;8.600;2022-07-03T07:57:09;48.90;14.30
51029;DHT22;37054;52.054;8.600;2022-07-03T07:59:35;49.10;14.30
51029;DHT22;37054;52.054;8.600;2022-07-03T08:02:00;49.10;13.70
51029;DHT22;37054;52.054;8.600;2022-07-03T08:04:44;49.10;13.60
51029;DHT22;37054;52.054;8.600;2022-07-03T08:18:18;49.50;13.90
51029;DHT22;37054;52.054;8.600;2022-07-03T08:20:47;49.70;13.90
51029;DHT22;37054;52.054;8.600;2022-07-03T08:23:17;49.80;13.80
51029;DHT22;37054;52.054;8.600;2022-07-03T08:44:02;50.10;12.50
51029;DHT22;37054;52.054;8.600;2022-07-03T08:49:07;49.90;12.50
51029;DHT22;37054;52.054;8.600;2022-07-03T08:51:35;49.90;12.20
51029;DHT22;37054;52.054;8.600;2022-07-03T08:54:01;49.70;12.40
51029;DHT22;37054;52.054;8.600;2022-07-03T08:56:28;49.70;12.70
51029;DHT22;37054;52.054;8.600;2022-07-03T08:58:57;49.80;12.90
51029;DHT22;37054;52.054;8.600;2022-07-03T09:01:23;49.80;12.70
51029;DHT22;37054;52.054;8.600;2022-07-03T09:09:24;50.20;12.20
51029;DHT22;37054;52.054;8.600;2022-07-03T09:11:53;50.00;12.20
51029;DHT22;37054;52.054;8.600;2022-07-03T09:16:58;49.50;12.00
51029;DHT22;37054;52.054;8.600;2022-07-03T09:25:24;48.90;12.60
51029;DHT22;37054;52.054;8.600;2022-07-03T09:27:52;49.20;12.60
51029;DHT22;37054;52.054;8.600;2022-07-03T09:30:18;49.30;12.40
51029;DHT22;37054;52.054;8.600;2022-07-03T09:32:44;49.50;12.30
51029;DHT22;37054;52.054;8.600;2022-07-03T09:35:22;49.70;12.10
51029;DHT22;37054;52.054;8.600;2022-07-03T09:37:52;49.90;12.20
51029;DHT22;37054;52.054;8.600;2022-07-03T09:40:23;50.20;11.80
51029;DHT22;37054;52.054;8.600;2022-07-03T09:42:58;50.40;12.00
51029;DHT22;37054;52.054;8.600;2022-07-03T09:45:24;50.60;11.80
51029;DHT22;37054;52.054;8.600;2022-07-03T09:47:53;50.70;11.90
51029;DHT22;37054;52.054;8.600;2022-07-03T09:53:00;51.20;11.80
51029;DHT22;37054;52.054;8.600;2022-07-03T09:55:55;51.30;11.70
51029;DHT22;37054;52.054;8.600;2022-07-03T09:58:21;51.20;11.20
51029;DHT22;37054;52.054;8.600;2022-07-03T10:11:24;51.70;11.70
51029;DHT22;37054;52.054;8.600;2022-07-03T10:13:58;51.90;11.30
51029;DHT22;37054;52.054;8.600;2022-07-03T10:16:24;52.00;11.40
51029;DHT22;37054;52.054;8.600;2022-07-03T10:18:50;52.20;11.40
51029;DHT22;37054;52.054;8.600;2022-07-03T10:21:17;52.50;11.30
51029;DHT22;37054;52.054;8.600;2022-07-03T10:23:43;52.90;11.20
51029;DHT22;37054;52.054;8.600;2022-07-03T10:26:12;53.20;10.90
51029;DHT22;37054;52.054;8.600;2022-07-03T10:49:27;51.70;10.80
51029;DHT22;37054;52.054;8.600;2022-07-03T10:52:03;51.60;11.00
51029;DHT22;37054;52.054;8.600;2022-07-03T10:57:22;52.20;10.90
51029;DHT22;37054;52.054;8.600;2022-07-03T11:38:37;51.90;10.90
51029;DHT22;37054;52.054;8.600;2022-07-03T11:44:07;52.50;10.80
51029;DHT22;37054;52.054;8.600;2022-07-03T12:04:44;53.30;10.10
51029;DHT22;37054;52.054;8.600;2022-07-03T12:07:09;52.00;10.50
51029;DHT22;37054;52.054;8.600;2022-07-03T12:09:36;51.00;11.00
51029;DHT22;37054;52.054;8.600;2022-07-03T14:21:37;43.80;14.60
51029;DHT22;37054;52.054;8.600;2022-07-03T14:29:14;41.90;15.90
51029;DHT22;37054;52.054;8.600;2022-07-03T14:37:10;41.00;17.10
51029;DHT22;37054;52.054;8.600;2022-07-03T14:39:59;40.60;17.40
51029;DHT22;37054;52.054;8.600;2022-07-03T14:42:24;40.20;17.70
51029;DHT22;37054;52.054;8.600;2022-07-03T14:50:02;39.30;18.80
51029;DHT22;37054;52.054;8.600;2022-07-03T14:52:39;39.00;19.20
51029;DHT22;37054;52.054;8.600;2022-07-03T14:55:06;38.70;19.50
51029;DHT22;37054;52.054;8.600;2022-07-03T14:58:15;38.40;19.90
51029;DHT22;37054;52.054;8.600;2022-07-03T15:14:25;36.90;21.70
51029;DHT22;37054;52.054;8.600;2022-07-03T15:16:54;36.70;21.90
51029;DHT22;37054;52.054;8.600;2022-07-03T15:22:01;36.40;22.40
51029;DHT22;37054;52.054;8.600;2022-07-03T15:24:32;36.20;22.60
51029;DHT22;37054;52.054;8.600;2022-07-03T15:27:02;36.00;22.80
51029;DHT22;37054;52.054;8.600;2022-07-03T15:29:31;35.90;22.80
51029;DHT22;37054;52.054;8.600;2022-07-03T15:32:01;35.80;23.00
51029;DHT22;37054;52.054;8.600;2022-07-03T15:34:28;35.70;23.20
51029;DHT22;37054;52.054;8.600;2022-07-03T15:44:45;35.20;23.50
51029;DHT22;37054;52.054;8.600;2022-07-03T15:47:30;35.20;23.50
51029;DHT22;37054;52.054;8.600;2022-07-03T15:49:57;35.10;23.60
51029;DHT22;37054;52.054;8.600;2022-07-03T15:52:29;35.00;23.40
51029;DHT22;37054;52.054;8.600;2022-07-03T16:10:38;34.50;23.80
51029;DHT22;37054;52.054;8.600;2022-07-03T16:13:04;34.50;23.80
51029;DHT22;37054;52.054;8.600;2022-07-03T16:15:40;34.50;23.70
51029;DHT22;37054;52.054;8.600;2022-07-03T16:18:07;34.40;23.70
51029;DHT22;37054;52.054;8.600;2022-07-03T16:20:34;34.40;23.60
51029;DHT22;37054;52.054;8.600;2022-07-03T16:23:01;34.40;23.70
51029;DHT22;37054;52.054;8.600;2022-07-03T16:25:33;34.50;23.60
51029;DHT22;37054;52.054;8.600;2022-07-03T16:28:00;34.50;23.50
51029;DHT22;37054;52.054;8.600;2022-07-03T16:30:29;34.70;23.40
51029;DHT22;37054;52.054;8.600;2022-07-03T16:32:58;34.70;23.20
51029;DHT22;37054;52.054;8.600;2022-07-03T16:35:27;34.80;23.20
51029;DHT22;37054;52.054;8.600;2022-07-03T16:37:56;34.80;23.10
51029;DHT22;37054;52.054;8.600;2022-07-03T16:40:23;34.70;23.00
51029;DHT22;37054;52.054;8.600;2022-07-03T16:42:51;34.70;23.00
51029;DHT22;37054;52.054;8.600;2022-07-03T16:45:18;34.60;23.20
51029;DHT22;37054;52.054;8.600;2022-07-03T16:47:47;34.50;23.20
51029;DHT22;37054;52.054;8.600;2022-07-03T16:50:19;34.40;23.30
51029;DHT22;37054;52.054;8.600;2022-07-03T16:52:46;34.40;23.40
51029;DHT22;37054;52.054;8.600;2022-07-03T16:55:15;34.30;23.50
51029;DHT22;37054;52.054;8.600;2022-07-03T16:57:43;34.30;23.50
51029;DHT22;37054;52.054;8.600;2022-07-03T17:00:10;34.30;23.60
51029;DHT22;37054;52.054;8.600;2022-07-03T17:02:37;34.20;23.60
51029;DHT22;37054;52.054;8.600;2022-07-03T17:05:03;34.10;23.70
51029;DHT22;37054;52.054;8.600;2022-07-03T17:07:29;34.00;23.70
51029;DHT22;37054;52.054;8.600;2022-07-03T17:09:58;34.00;23.70
51029;DHT22;37054;52.054;8.600;2022-07-03T17:12:24;34.00;23.80
51029;DHT22;37054;52.054;8.600;2022-07-03T17:14:59;33.90;23.80
51029;DHT22;37054;52.054;8.600;2022-07-03T17:17:25;33.90;23.90
51029;DHT22;37054;52.054;8.600;2022-07-03T17:19:59;33.90;23.90
51029;DHT22;37054;52.054;8.600;2022-07-03T17:22:27;33.80;24.00
51029;DHT22;37054;52.054;8.600;2022-07-03T17:25:08;33.80;24.00
51029;DHT22;37054;52.054;8.600;2022-07-03T17:27:35;33.80;24.00
51029;DHT22;37054;52.054;8.600;2022-07-03T17:32:38;33.70;24.20
51029;DHT22;37054;52.054;8.600;2022-07-03T17:35:26;33.50;24.30
51029;DHT22;37054;52.054;8.600;2022-07-03T17:40:56;33.20;24.70
51029;DHT22;37054;52.054;8.600;2022-07-03T17:43:23;33.10;24.80
51029;DHT22;37054;52.054;8.600;2022-07-03T17:45:49;33.00;24.90
51029;DHT22;37054;52.054;8.600;2022-07-03T17:48:14;32.90;25.10
51029;DHT22;37054;52.054;8.600;2022-07-03T17:50:40;32.80;25.20
51029;DHT22;37054;52.054;8.600;2022-07-03T17:53:15;32.80;25.30
51029;DHT22;37054;52.054;8.600;2022-07-03T17:55:41;32.70;25.40
51029;DHT22;37054;52.054;8.600;2022-07-03T17:58:12;32.60;25.50
51029;DHT22;37054;52.054;8.600;2022-07-03T18:04:00;32.20;26.80
51029;DHT22;37054;52.054;8.600;2022-07-03T18:06:28;31.90;27.20
51029;DHT22;37054;52.054;8.600;2022-07-03T18:11:46;32.00;27.00
51029;DHT22;37054;52.054;8.600;2022-07-03T18:14:23;31.80;26.90
51029;DHT22;37054;52.054;8.600;2022-07-03T18:16:51;31.80;26.90
51029;DHT22;37054;52.054;8.600;2022-07-03T18:19:17;31.70;26.90
51029;DHT22;37054;52.054;8.600;2022-07-03T18:21:43;31.70;26.90
51029;DHT22;37054;52.054;8.600;2022-07-03T18:24:11;31.70;27.00
51029;DHT22;37054;52.054;8.600;2022-07-03T18:26:44;31.50;27.00
51029;DHT22;37054;52.054;8.600;2022-07-03T18:29:15;31.50;27.10
51029;DHT22;37054;52.054;8.600;2022-07-03T18:31:47;31.40;27.10
51029;DHT22;37054;52.054;8.600;2022-07-03T18:34:30;31.30;27.20
51029;DHT22;37054;52.054;8.600;2022-07-03T18:37:05;31.30;27.20
51029;DHT22;37054;52.054;8.600;2022-07-03T18:39:44;31.30;27.20
51029;DHT22;37054;52.054;8.600;2022-07-03T18:42:09;31.20;27.20
51029;DHT22;37054;52.054;8.600;2022-07-03T18:44:35;31.20;27.30
51029;DHT22;37054;52.054;8.600;2022-07-03T18:47:24;31.10;27.30
51029;DHT22;37054;52.054;8.600;2022-07-03T18:55:25;30.90;27.40
51029;DHT22;37054;52.054;8.600;2022-07-03T18:57:57;30.80;27.60
51029;DHT22;37054;52.054;8.600;2022-07-03T19:00:42;30.70;28.20
51029;DHT22;37054;52.054;8.600;2022-07-03T19:03:13;30.50;29.40
51029;DHT22;37054;52.054;8.600;2022-07-03T19:08:55;30.00;30.40
51029;DHT22;37054;52.054;8.600;2022-07-03T19:11:26;29.80;31.10
51029;DHT22;37054;52.054;8.600;2022-07-03T19:26:18;29.00;32.70
51029;DHT22;37054;52.054;8.600;2022-07-03T19:28:44;28.80;33.00
51029;DHT22;37054;52.054;8.600;2022-07-03T19:31:14;28.70;33.20
51029;DHT22;37054;52.054;8.600;2022-07-03T19:33:53;28.60;33.30
51029;DHT22;37054;52.054;8.600;2022-07-03T19:36:23;28.50;33.60
51029;DHT22;37054;52.054;8.600;2022-07-03T19:38:51;28.40;33.70
51029;DHT22;37054;52.054;8.600;2022-07-03T19:41:19;28.30;34.10
51029;DHT22;37054;52.054;8.600;2022-07-03T19:46:57;28.00;34.20
51029;DHT22;37054;52.054;8.600;2022-07-03T19:49:27;27.80;34.70
51029;DHT22;37054;52.054;8.600;2022-07-03T19:52:04;27.70;34.80
51029;DHT22;37054;52.054;8.600;2022-07-03T19:54:33;27.50;35.20
51029;DHT22;37054;52.054;8.600;2022-07-03T19:56:58;27.40;35.30
51029;DHT22;37054;52.054;8.600;2022-07-03T19:59:25;27.30;35.90
51029;DHT22;37054;52.054;8.600;2022-07-03T20:01:51;27.20;36.30
51029;DHT22;37054;52.054;8.600;2022-07-03T20:04:18;27.00;36.40
51029;DHT22;37054;52.054;8.600;2022-07-03T20:06:43;26.90;36.50
51029;DHT22;37054;52.054;8.600;2022-07-03T20:09:10;26.90;36.70
51029;DHT22;37054;52.054;8.600;2022-07-03T20:11:36;26.80;36.80
51029;DHT22;37054;52.054;8.600;2022-07-03T20:14:01;26.70;36.80
51029;DHT22;37054;52.054;8.600;2022-07-03T20:16:28;26.70;36.90
51029;DHT22;37054;52.054;8.600;2022-07-03T20:18:54;26.60;37.40
51029;DHT22;37054;52.054;8.600;2022-07-03T20:21:20;26.40;37.50
51029;DHT22;37054;52.054;8.600;2022-07-03T20:23:45;26.30;37.70
51029;DHT22;37054;52.054;8.600;2022-07-03T20:26:29;26.20;37.50
51029;DHT22;37054;52.054;8.600;2022-07-03T20:28:55;26.10;37.80
51029;DHT22;37054;52.054;8.600;2022-07-03T20:31:21;26.00;37.80
51029;DHT22;37054;52.054;8.600;2022-07-03T20:36:50;26.00;37.70
51029;DHT22;37054;52.054;8.600;2022-07-03T20:42:19;25.80;38.20
51029;DHT22;37054;52.054;8.600;2022-07-03T20:44:44;25.80;38.30
51029;DHT22;37054;52.054;8.600;2022-07-03T20:47:12;25.70;38.40
51029;DHT22;37054;52.054;8.600;2022-07-03T20:49:38;25.60;38.30
51029;DHT22;37054;52.054;8.600;2022-07-03T20:52:04;25.50;38.80
51029;DHT22;37054;52.054;8.600;2022-07-03T20:54:34;25.50;38.70
51029;DHT22;37054;52.054;8.600;2022-07-03T20:57:00;25.40;38.90
51029;DHT22;37054;52.054;8.600;2022-07-03T20:59:31;25.30;39.00
51029;DHT22;37054;52.054;8.600;2022-07-03T21:02:05;25.30;39.30
51029;DHT22;37054;52.054;8.600;2022-07-03T21:04:32;25.20;39.30
51029;DHT22;37054;52.054;8.600;2022-07-03T21:07:12;25.10;39.20
51029;DHT22;37054;52.054;8.600;2022-07-03T21:15:03;24.80;39.50
51029;DHT22;37054;52.054;8.600;2022-07-03T21:17:35;24.80;39.90
51029;DHT22;37054;52.054;8.600;2022-07-03T21:20:04;24.70;40.00
51029;DHT22;37054;52.054;8.600;2022-07-03T21:22:35;24.60;40.30
51029;DHT22;37054;52.054;8.600;2022-07-03T21:25:09;24.50;40.20
51029;DHT22;37054;52.054;8.600;2022-07-03T21:27:34;24.50;40.30
51029;DHT22;37054;52.054;8.600;2022-07-03T21:30:00;24.40;40.30
51029;DHT22;37054;52.054;8.600;2022-07-03T22:55:34;21.70;41.50
